函館空港の過去48時間の天気

函館空港 (Hakodate)

現在時刻: 6/3 16:20 JST (6/3 07:20 UTC) 以下の時間は現地時間です。

過去48時間のMETAR気象情報
時間 風向 風速(m/s) 視程 気温(℃) 湿度(%) 気圧(hPa) 天気現象
3 16:00 3 10km以上 17 83 1005
3 15:00 南南西 2 10km以上 17 83 1005
3 14:00 不定 1 10km以上 20 73 1005
3 13:00 北北東 3 10km以上 18 88 1006 弱いしゅう雨
3 12:00 不定 2 10km以上 16 88 1006 弱いしゅう雨
3 11:00 南南西 4 10km以上 17 83 1006
3 10:00 南南西 5 10km以上 18 73 1006
3 09:00 南南東 2 10km以上 16 82 1006
3 08:00 南西 2 10km以上 16 82 1006
3 07:00 2 10km以上 16 88 1006
3 06:10 不定 1 10km以上 15 88 1006
2 20:00 西南西 4 10km以上 15 82 1006
2 19:00 西南西 6 10km以上 15 82 1006
2 18:00 西南西 5 10km以上 16 77 1005
2 17:00 西南西 8 10km以上 17 77 1004
2 16:00 南西 9 10km以上 17 77 1004
2 15:00 南西 8 10km以上 17 83 1004
2 14:00 南西 8 10km以上 18 77 1004
2 13:00 南西 6 10km以上 18 77 1004
2 12:00 南西 7 10km以上 18 77 1004
2 11:00 南西 8 10km以上 17 83 1004
2 10:00 南西 7 10km以上 17 88 1005
2 09:00 南南西 3 10km以上 17 88 1004
2 08:32 南西 3 10km以上 17 88 1004
2 08:00 南西 2 7000m 17 94 1004
2 07:16 南南東 2 6000m 16 94 1004
2 07:00 2 7000m 16 94 1004
2 06:38 南東 2 8000m 16 94 1004
2 06:10 不定 1 8000m 16 88 1004
1 20:00 不定 1 10km以上 16 72 1006
1 19:00 南南西 2 10km以上 15 82 1007
1 18:00 不定 1 10km以上 17 68 1007
1 17:00 西南西 2 10km以上 17 72 1007
RJCH 030700Z VRB05KT 9999 FEW030 BKN100 17/14 Q1005
RJCH 030600Z 21004KT 180V250 9999 FEW030 BKN090 17/14 Q1005
RJCH 030500Z VRB02KT 9999 FEW003 BKN120 20/15 Q1005
RJCH 030400Z 03005KT 350V100 9999 -SHRA FEW003 SCT070 BKN090 18/16 Q1006
RJCH 030300Z VRB04KT 9999 -SHRA FEW020 SCT060 BKN090 16/14 Q1006
RJCH 030200Z 20007KT 160V230 9999 FEW020 SCT100 BKN150 17/14 Q1006
RJCH 030100Z 20010KT 9999 FEW020 SCT100 BKN160 18/13 Q1006
RJCH 030000Z 16004KT 130V200 9999 FEW005 SCT060 BKN100 16/13 Q1006
RJCH 022300Z 22004KT 180V250 9999 FEW020 BKN140 16/13 Q1006
RJCH 022200Z 18003KT 9999 FEW025 SCT130 16/14 Q1006
RJCH 022110Z VRB02KT 9999 FEW030 BKN130 15/13 Q1006 RMK 1CU030 5AC130 A2973
RJCH 021100Z 25008KT 9999 FEW025 BKN/// 15/12 Q1006
RJCH 021000Z 24011KT 9999 FEW020 BKN/// 15/12 Q1006
RJCH 020900Z 24010KT 9999 FEW020 BKN/// 16/12 Q1005
RJCH 020800Z 24015KT 9999 FEW015 SCT/// 17/13 Q1004
RJCH 020700Z 23018KT 9999 FEW020 BKN/// 17/13 Q1004
RJCH 020600Z 22015KT 9999 FEW025 SCT/// 17/14 Q1004
RJCH 020500Z 23016KT 9999 FEW025 18/14 Q1004
RJCH 020400Z 22012KT 9999 FEW020 18/14 Q1004
RJCH 020300Z 22013KT 9999 FEW015 SCT030 18/14 Q1004
RJCH 020200Z 22015KT 9999 FEW012 SCT030 BKN/// 17/14 Q1004
RJCH 020100Z 23013KT 9999 FEW008 SCT025 BKN/// 17/15 Q1005
RJCH 020000Z 20006KT 9999 FEW008 SCT012 BKN025 17/15 Q1004
RJCH 012332Z 22005KT 170V260 9999 FEW006 BKN010 BKN015 17/15 Q1004 RMK 1ST006 5ST010 7ST015 A2967
RJCH 012300Z 23004KT 200V280 7000 FEW002 BKN006 BKN010 17/16 Q1004
RJCH 012216Z 15003KT 120V200 6000 SCT002 BKN005 BKN008 16/15 Q1004 RMK 3ST002 5ST005 7ST008 A2967
RJCH 012200Z 18003KT 090V230 7000 SCT002 BKN006 BKN010 16/15 Q1004
RJCH 012138Z 14003KT 060V230 8000 FEW002 BKN006 BKN010 16/15 Q1004 RMK 2ST002 5ST006 7ST010 A2966
RJCH 012110Z VRB02KT 8000 FEW003 BKN007 BKN012 16/14 Q1004 RMK 2ST003 5ST007 7ST012 A2966
RJCH 011100Z VRB02KT 9999 FEW030 BKN090 16/11 Q1006
RJCH 011000Z 20003KT 140V260 9999 FEW030 SCT090 BKN120 15/12 Q1007
RJCH 010900Z VRB02KT 9999 FEW030 SCT080 BKN140 17/11 Q1007
RJCH 010800Z 25004KT 9999 FEW040 SCT080 BKN130 17/12 Q1007